Time;durP1;ratioP1;P1;durP2;ratioP2;P2;SDS_P1;SDS_P2;PMS_P1;PMS_P2;Temp;Humidity;BMP_temperature;BMP_pressure;BME280_temperature;BME280_humidity;BME280_pressure;Samples;Min_cycle;Max_cycle;Signal;HPM_P1;HPM_P2
2022/08/12 00:43:29;;;;;;;5.63;3.00;;;;;;;22.04;44.30;101653.22;3592934;40;20321;-63
2022/08/12 00:48:41;;;;;;;3.25;2.92;;;;;;;21.84;43.81;101630.53;3588391;40;20515;-63
2022/08/12 00:51:09;;;;;;;5.00;3.13;;;;;;;21.90;44.27;101638.13;3592560;39;20051;-63
2022/08/12 00:53:37;;;;;;;4.05;3.22;;;;;;;21.86;44.71;101639.47;3588888;39;20295;-63
2022/08/12 00:56:06;;;;;;;3.33;2.70;;;;;;;21.86;44.73;101644.94;3589220;40;20050;-63
2022/08/12 00:58:33;;;;;;;4.70;3.40;;;;;;;21.86;44.75;101642.19;3583760;40;20056;-63
2022/08/12 01:01:06;;;;;;;5.57;3.20;;;;;;;21.86;45.34;101644.94;3589615;40;20059;-63
2022/08/12 01:11:59;;;;;;;7.03;2.85;;;;;;;21.67;45.28;101644.97;3587548;40;20062;-63
2022/08/12 01:14:27;;;;;;;2.88;2.67;;;;;;;21.69;44.63;101642.94;3590787;40;20087;-63
2022/08/12 01:16:55;;;;;;;4.25;2.95;;;;;;;21.67;43.81;101644.97;3589010;40;20060;-63
2022/08/12 01:19:22;;;;;;;5.75;3.22;;;;;;;21.63;44.56;101641.69;3591803;39;20082;-63
2022/08/12 01:22:17;;;;;;;5.13;2.90;;;;;;;21.64;45.45;101639.81;3589490;39;20196;-63
2022/08/12 01:24:58;;;;;;;5.15;2.75;;;;;;;21.61;45.15;101640.09;3584077;40;20080;-63
2022/08/12 01:27:26;;;;;;;4.05;3.20;;;;;;;21.58;45.10;101641.25;3593299;39;20117;-63
2022/08/12 01:29:55;;;;;;;4.03;3.13;;;;;;;21.56;45.37;101641.38;3589480;39;20072;-63
2022/08/12 01:32:25;;;;;;;4.07;2.95;;;;;;;21.36;45.02;101626.00;3589204;39;20408;-63
2022/08/12 01:35:04;;;;;;;5.97;3.38;;;;;;;21.51;45.32;101640.13;3590763;40;20075;-63
2022/08/12 01:37:41;;;;;;;4.22;3.03;;;;;;;21.48;44.93;101644.00;3584514;40;20060;-63
2022/08/12 01:40:10;;;;;;;3.40;3.10;;;;;;;21.47;44.71;101649.59;3590879;40;20055;-63
2022/08/12 01:42:49;;;;;;;3.95;3.10;;;;;;;21.45;45.54;101644.28;3590281;40;20056;-63
2022/08/12 01:45:23;;;;;;;4.13;3.35;;;;;;;21.43;45.38;101642.72;3586028;40;20376;-63
2022/08/12 01:48:25;;;;;;;;;;;;;;;21.42;45.56;101647.31;3586094;40;20055;-63
2022/08/12 01:51:12;;;;;;;4.72;3.33;;;;;;;21.38;45.65;101634.94;3585021;40;20217;-63
2022/08/12 01:54:04;;;;;;;5.00;3.70;;;;;;;21.31;47.56;101639.22;3586326;40;20082;-63
2022/08/12 01:57:04;;;;;;;6.72;3.50;;;;;;;21.25;46.64;101635.22;3585233;40;20044;-63
2022/08/12 01:59:49;;;;;;;8.50;3.33;;;;;;;21.22;47.23;101651.06;3585341;40;20060;-63
2022/08/12 02:02:41;;;;;;;4.85;3.83;;;;;;;21.16;46.87;101630.59;3584849;40;20052;-63
2022/08/12 02:11:28;;;;;;;6.10;3.30;;;;;;;20.99;46.68;101629.44;3584868;40;20058;-63
2022/08/12 02:14:35;;;;;;;6.07;3.35;;;;;;;20.97;47.46;101638.81;3588421;40;20063;-63
2022/08/12 02:17:47;;;;;;;4.35;3.63;;;;;;;20.93;47.23;101635.50;3585824;40;20384;-63
2022/08/12 02:20:34;;;;;;;4.00;3.58;;;;;;;20.91;48.15;101636.66;3585212;40;20060;-63
2022/08/12 02:23:03;;;;;;;6.70;3.92;;;;;;;20.87;48.13;101638.81;3586264;40;20054;-63
2022/08/12 02:25:36;;;;;;;4.47;3.25;;;;;;;20.66;48.32;101603.38;3585532;40;20055;-63
2022/08/12 02:28:03;;;;;;;4.63;3.40;;;;;;;20.80;49.11;101629.41;3586965;40;20056;-63
2022/08/12 02:30:35;;;;;;;7.45;4.10;;;;;;;20.75;49.01;101623.53;3583413;40;20488;-63
2022/08/12 02:33:04;;;;;;;7.60;3.80;;;;;;;20.73;48.67;101622.81;3586197;40;20075;-63
2022/08/12 02:35:34;;;;;;;4.03;3.65;;;;;;;20.70;48.85;101621.22;3586814;40;20278;-63
2022/08/12 02:38:05;;;;;;;5.35;3.70;;;;;;;20.60;48.43;101612.16;3586304;40;20113;-63
2022/08/12 02:40:38;;;;;;;7.82;3.80;;;;;;;20.63;48.30;101623.66;3585348;40;20053;-64
2022/08/12 02:43:29;;;;;;;7.45;3.95;;;;;;;20.58;48.32;101623.22;3584809;39;20063;-63
2022/08/12 02:46:05;;;;;;;4.43;3.60;;;;;;;20.54;49.53;101624.50;3584161;40;20406;-63
2022/08/12 02:48:45;;;;;;;5.35;3.90;;;;;;;20.52;49.32;101620.16;3584475;40;20056;-63
2022/08/12 02:51:19;;;;;;;3.95;3.55;;;;;;;20.46;49.48;101616.13;3584789;40;20048;-63
2022/08/12 02:53:46;;;;;;;6.85;4.00;;;;;;;20.45;49.34;101621.69;3585329;40;20060;-63
2022/08/12 02:56:11;;;;;;;6.65;3.53;;;;;;;20.42;49.25;101617.38;3584759;39;20625;-63
2022/08/12 02:58:39;;;;;;;4.47;3.30;;;;;;;20.40;50.09;101625.72;3587221;40;20062;-63
2022/08/12 03:01:10;;;;;;;10.90;4.25;;;;;;;20.14;49.51;101581.69;3586681;40;20059;-64
2022/08/12 03:03:38;;;;;;;4.28;3.80;;;;;;;20.36;50.04;101623.38;3587873;39;20044;-63
2022/08/12 03:06:20;;;;;;;4.60;3.78;;;;;;;20.33;50.48;101624.56;3585652;40;20058;-63
2022/08/12 03:08:48;;;;;;;4.35;3.58;;;;;;;20.27;50.17;101614.19;3586789;40;20060;-63
2022/08/12 03:11:26;;;;;;;6.75;3.63;;;;;;;20.30;50.71;101615.78;3586499;40;20087;-63
2022/08/12 03:13:59;;;;;;;3.75;3.38;;;;;;;20.28;50.25;101623.25;3585138;40;20084;-62
2022/08/12 03:16:29;;;;;;;;;;;;;;;20.28;50.32;101612.31;3585993;40;20368;-63
2022/08/12 03:18:56;;;;;;;4.20;3.70;;;;;;;20.06;50.52;101591.56;3586963;40;19944;-63
2022/08/12 03:21:26;;;;;;;4.82;3.88;;;;;;;20.20;51.17;101617.59;3585971;40;20054;-63
2022/08/12 03:23:54;;;;;;;6.90;4.10;;;;;;;20.16;50.61;101620.59;3586795;40;20398;-62
2022/08/12 03:26:24;;;;;;;6.20;3.80;;;;;;;20.15;51.30;101607.09;3585777;39;20048;-63
2022/08/12 03:28:56;;;;;;;4.90;4.07;;;;;;;19.94;51.44;101577.13;3587268;40;20044;-63
2022/08/12 03:31:28;;;;;;;5.35;3.80;;;;;;;20.10;50.84;101610.22;3586503;40;20052;-63
2022/08/12 03:34:01;;;;;;;6.45;3.97;;;;;;;20.06;51.97;101613.38;3587950;40;20050;-62
2022/08/12 03:36:29;;;;;;;5.97;4.37;;;;;;;20.02;51.04;101606.47;3586104;40;20304;-63
2022/08/12 03:39:20;;;;;;;6.10;4.15;;;;;;;19.98;52.88;101603.16;3585793;40;20044;-63
2022/08/12 03:42:08;;;;;;;7.85;4.50;;;;;;;19.95;51.87;101595.25;3586981;40;20084;-63
2022/08/12 04:02:01;;;;;;;5.55;4.53;;;;;;;19.81;52.64;101609.25;3586449;40;20398;-62
2022/08/12 04:04:34;;;;;;;7.15;4.65;;;;;;;19.82;53.42;101610.97;3587604;40;20056;-62
2022/08/12 04:07:06;;;;;;;5.10;4.60;;;;;;;19.81;52.72;101612.84;3587052;40;20084;-62
2022/08/12 04:09:35;;;;;;;4.95;4.45;;;;;;;19.78;53.66;101610.38;3593127;40;20059;-63
2022/08/12 04:14:50;;;;;;;8.10;4.50;;;;;;;19.74;52.61;101608.06;3587434;40;20113;-62
2022/08/12 04:17:18;;;;;;;6.03;4.72;;;;;;;19.68;53.46;101615.78;3587037;39;20084;-62
2022/08/12 04:19:47;;;;;;;5.40;4.65;;;;;;;19.69;53.29;101622.97;3589893;39;20419;-62
2022/08/12 04:22:13;;;;;;;4.80;4.30;;;;;;;19.61;53.78;101625.47;3586189;40;20465;-63
2022/08/12 04:24:40;;;;;;;6.45;4.32;;;;;;;19.62;53.60;101619.00;3587246;40;20052;-62
2022/08/12 04:27:09;;;;;;;7.82;4.60;;;;;;;19.61;54.10;101614.56;3587786;39;20386;-62
2022/08/12 04:29:38;;;;;;;7.55;4.90;;;;;;;19.61;54.12;101614.56;3586653;40;20051;-62
2022/08/12 04:32:05;;;;;;;7.72;6.22;;;;;;;19.58;53.66;101614.84;3587080;40;20055;-63
2022/08/12 04:34:32;;;;;;;6.50;5.00;;;;;;;19.53;53.83;101617.09;3587431;40;20048;-62
2022/08/12 04:36:58;;;;;;;9.10;5.40;;;;;;;19.50;54.90;101617.34;3586990;40;20357;-62
2022/08/12 04:39:27;;;;;;;7.25;4.78;;;;;;;19.48;54.22;101622.94;3584490;40;20056;-63
2022/08/12 04:41:53;;;;;;;10.52;4.85;;;;;;;19.48;55.11;101619.38;3584541;40;20045;-63
2022/08/12 04:44:19;;;;;;;8.15;4.93;;;;;;;19.49;54.26;101621.09;3585137;40;20051;-63
2022/08/12 04:46:45;;;;;;;7.50;4.95;;;;;;;19.51;54.83;101624.56;3587207;40;20067;-62
2022/08/12 04:49:10;;;;;;;6.88;5.38;;;;;;;19.50;54.86;101620.06;3584933;39;20106;-63
2022/08/12 04:51:36;;;;;;;5.78;4.85;;;;;;;19.49;54.97;101618.34;3585373;40;20118;-63
2022/08/12 04:54:03;;;;;;;7.47;5.20;;;;;;;19.46;55.90;101621.34;3586669;40;20055;-63
2022/08/12 04:56:30;;;;;;;8.95;4.70;;;;;;;19.46;54.91;101624.06;3587394;39;20055;-63
2022/08/12 04:58:58;;;;;;;7.75;5.00;;;;;;;19.46;55.85;101613.16;3585481;40;20059;-63
2022/08/12 05:01:31;;;;;;;6.03;4.72;;;;;;;19.48;55.30;101619.38;3588149;40;20349;-63
2022/08/12 05:03:58;;;;;;;6.95;4.53;;;;;;;19.45;55.86;101619.63;3586356;40;20075;-63
2022/08/12 05:06:25;;;;;;;6.88;4.65;;;;;;;19.48;56.25;101614.78;3585410;40;20402;-63
2022/08/12 05:08:59;;;;;;;7.70;4.50;;;;;;;19.48;55.47;101613.91;3587333;40;20047;-63
2022/08/12 05:11:26;;;;;;;8.20;4.45;;;;;;;19.51;54.99;101607.34;3585642;40;20055;-63
2022/08/12 05:13:59;;;;;;;6.70;4.30;;;;;;;19.58;55.60;101612.09;3584887;40;20087;-63
2022/08/12 05:16:25;;;;;;;5.22;4.03;;;;;;;19.63;54.93;101618.03;3585449;40;20054;-63
2022/08/12 05:18:51;;;;;;;5.53;4.38;;;;;;;19.67;55.46;101613.19;3586417;40;20398;-62
2022/08/12 05:21:16;;;;;;;8.60;4.63;;;;;;;19.64;55.16;101603.41;3585019;40;20357;-63
2022/08/12 05:23:42;;;;;;;6.03;4.43;;;;;;;19.75;55.63;101617.97;3584799;40;20068;-63
2022/08/12 05:26:09;;;;;;;7.78;4.18;;;;;;;19.79;54.95;101612.13;3585258;39;20060;-63
2022/08/12 05:28:36;;;;;;;9.73;4.60;;;;;;;19.85;55.41;101613.41;3588769;40;20052;-63
2022/08/12 05:31:03;;;;;;;7.45;4.00;;;;;;;19.86;55.35;101618.75;3585526;40;20048;-63
2022/08/12 05:33:36;;;;;;;7.30;4.72;;;;;;;19.89;55.29;101621.22;3586391;40;20048;-62
2022/08/12 05:36:08;;;;;;;9.07;4.80;;;;;;;19.92;55.29;101620.09;3589003;40;20400;-62
2022/08/12 05:41:19;;;;;;;8.57;4.60;;;;;;;20.09;55.33;101633.06;3586867;40;20106;-63
2022/08/12 05:44:01;;;;;;;8.35;4.65;;;;;;;20.07;55.30;101615.97;3586447;40;20052;-62
2022/08/12 05:46:30;;;;;;;8.48;4.63;;;;;;;20.20;55.03;101631.25;3585840;40;20056;-63
2022/08/12 05:48:59;;;;;;;10.10;5.10;;;;;;;20.25;55.19;101634.44;3585907;40;20053;-63
2022/08/12 05:51:30;;;;;;;10.70;5.43;;;;;;;20.27;54.47;101636.03;3584945;40;20096;-63
2022/08/12 05:53:57;;;;;;;8.27;5.00;;;;;;;20.33;54.81;101637.31;3588125;40;20118;-63
2022/08/12 05:56:30;;;;;;;11.95;5.20;;;;;;;20.40;54.88;101633.06;3588217;40;20048;-63
2022/08/12 05:58:58;;;;;;;;;;;;;;;20.33;54.42;101618.22;3585465;40;20053;-63
2022/08/12 06:01:26;;;;;;;9.20;5.32;;;;;;;20.36;54.12;101623.38;3585604;40;20294;-63
2022/08/12 06:03:53;;;;;;;12.20;5.43;;;;;;;20.53;53.80;101644.63;3583754;40;20060;-62
2022/08/12 06:06:21;;;;;;;9.38;5.18;;;;;;;20.62;54.35;101649.25;3586230;40;20448;-62
2022/08/12 06:08:54;;;;;;;9.07;5.50;;;;;;;20.68;53.71;101652.41;3589270;39;20057;-63
2022/08/12 06:11:24;;;;;;;9.18;5.10;;;;;;;20.76;53.24;101649.84;3584025;40;20137;-63
2022/08/12 06:13:52;;;;;;;9.82;5.18;;;;;;;20.84;53.60;101639.94;3585440;40;20125;-64
2022/08/12 06:16:21;;;;;;;7.65;4.93;;;;;;;20.92;53.35;101641.09;3584734;40;20048;-63
2022/08/12 06:18:47;;;;;;;9.27;5.80;;;;;;;21.03;52.77;101641.84;3584259;40;20048;-63
2022/08/12 06:21:20;;;;;;;9.90;5.68;;;;;;;21.14;52.11;101643.56;3587861;40;20052;-63
2022/08/12 06:23:46;;;;;;;10.80;5.35;;;;;;;21.22;52.54;101651.91;3587763;40;20129;-62
2022/08/12 06:26:15;;;;;;;7.88;5.70;;;;;;;21.37;51.64;101644.13;3584955;40;20064;-63
2022/08/12 06:28:47;;;;;;;9.20;5.20;;;;;;;21.51;50.87;101643.72;3584843;40;20297;-63
2022/08/12 06:31:15;;;;;;;9.32;5.20;;;;;;;21.49;50.05;101604.69;3585877;40;20062;-64
2022/08/12 06:33:46;;;;;;;6.55;4.95;;;;;;;21.82;49.46;101638.03;3587312;39;20042;-63
2022/08/12 06:36:16;;;;;;;8.57;5.15;;;;;;;22.02;49.97;101638.81;3586327;40;20067;-63
2022/08/12 06:38:44;;;;;;;7.65;5.38;;;;;;;22.18;49.34;101639.09;3585547;40;20044;-63
2022/08/12 06:43:55;;;;;;;8.00;5.35;;;;;;;22.52;48.12;101640.34;3584822;40;20043;-63
2022/08/12 06:46:28;;;;;;;12.07;5.10;;;;;;;22.69;48.20;101642.28;3584230;40;20052;-63
2022/08/12 06:48:57;;;;;;;6.57;5.05;;;;;;;22.88;46.00;101641.28;3584556;40;20058;-63
2022/08/12 06:51:30;;;;;;;9.48;4.85;;;;;;;23.10;46.83;101640.84;3584521;40;20052;-63
2022/08/12 06:53:58;;;;;;;;;;;;;;;23.34;47.24;101626.50;3584807;39;20061;-63
2022/08/12 06:56:23;;;;;;;6.57;4.68;;;;;;;23.52;45.60;101629.19;3585742;40;19938;-63
2022/08/12 06:58:49;;;;;;;7.57;4.70;;;;;;;23.51;46.54;101588.19;3583752;40;20044;-63
2022/08/12 07:01:17;;;;;;;7.55;4.55;;;;;;;23.90;45.19;101626.22;3583456;40;20095;-63
2022/08/12 07:03:42;;;;;;;6.22;4.80;;;;;;;24.10;44.61;101633.19;3584270;40;20049;-64
2022/08/12 07:06:12;;;;;;;8.82;4.78;;;;;;;24.21;44.91;101624.69;3583873;39;20319;-63
2022/08/12 07:08:42;;;;;;;6.55;4.80;;;;;;;24.35;43.89;101631.41;3587293;40;20043;-64
2022/08/12 07:11:12;;;;;;;9.15;4.63;;;;;;;24.48;43.52;101633.72;3585525;39;20053;-63
2022/08/12 07:13:49;;;;;;;5.20;4.10;;;;;;;24.70;44.06;101633.13;3585972;39;20056;-64
2022/08/12 07:16:18;;;;;;;6.28;4.35;;;;;;;24.91;42.46;101637.31;3586084;40;20060;-63
2022/08/12 07:18:49;;;;;;;10.85;4.85;;;;;;;25.09;42.71;101624.28;3587093;39;20056;-63
2022/08/12 07:21:17;;;;;;;5.28;4.07;;;;;;;25.30;41.29;101636.69;3587190;40;20312;-63
2022/08/12 07:23:43;;;;;;;8.55;4.15;;;;;;;25.46;41.38;101637.53;3583972;40;20084;-64
2022/08/12 07:26:16;;;;;;;7.05;3.90;;;;;;;25.67;41.34;101638.91;3584674;40;20076;-64
2022/08/12 07:28:42;;;;;;;13.07;4.28;;;;;;;25.83;39.65;101640.81;3584022;40;20089;-64
2022/08/12 07:31:10;;;;;;;6.68;3.92;;;;;;;26.00;41.69;101645.22;3583112;39;20067;-64
2022/08/12 07:33:40;;;;;;;6.35;4.18;;;;;;;26.13;39.19;101645.56;3585364;40;20067;-64
2022/08/12 07:36:12;;;;;;;5.72;3.95;;;;;;;26.25;40.48;101642.41;3584007;40;20071;-63
2022/08/12 07:38:43;;;;;;;7.47;4.32;;;;;;;26.41;38.33;101653.38;3583734;40;20048;-64
2022/08/12 07:41:15;;;;;;;7.75;3.65;;;;;;;26.51;37.60;101656.78;3585129;40;20080;-64
2022/08/12 07:44:05;;;;;;;5.30;3.80;;;;;;;26.75;38.70;101654.97;3585672;40;20333;-64
2022/08/12 07:46:37;;;;;;;8.23;3.97;;;;;;;27.03;37.65;101658.94;3586512;40;20052;-64
2022/08/12 07:49:14;;;;;;;8.52;3.60;;;;;;;27.28;36.48;101656.88;3585699;39;20048;-64
2022/08/12 07:51:43;;;;;;;11.13;3.85;;;;;;;27.44;38.12;101655.03;3585374;40;20044;-64
2022/08/12 07:54:11;;;;;;;4.43;3.53;;;;;;;27.63;37.17;101653.66;3585721;39;20059;-64
2022/08/12 07:56:41;;;;;;;7.70;4.10;;;;;;;27.52;36.69;101653.03;3586604;40;20044;-64
2022/08/12 07:59:08;;;;;;;3.63;3.25;;;;;;;27.73;35.50;101648.72;3585688;40;20092;-64
2022/08/12 08:01:38;;;;;;;6.72;3.72;;;;;;;27.84;35.72;101653.81;3585608;39;20068;-64
2022/08/12 08:06:51;;;;;;;6.10;3.53;;;;;;;28.17;34.94;101656.22;3586381;40;20086;-64
2022/08/12 08:09:21;;;;;;;4.15;3.70;;;;;;;28.29;34.18;101654.72;3588725;40;20113;-64
2022/08/12 08:14:32;;;;;;;8.18;3.53;;;;;;;28.45;33.53;101660.06;3586423;40;20102;-64
2022/08/12 08:17:02;;;;;;;4.00;3.47;;;;;;;28.42;32.79;101654.91;3586734;40;20051;-64
2022/08/12 08:19:29;;;;;;;5.72;3.58;;;;;;;28.50;34.68;101640.09;3587158;40;20052;-64
2022/08/12 08:21:57;;;;;;;6.03;3.90;;;;;;;28.86;33.47;101662.28;3587903;40;20463;-64
2022/08/12 08:24:26;;;;;;;4.68;3.30;;;;;;;29.06;33.33;101664.44;3584129;40;20350;-64
2022/08/12 08:26:57;;;;;;;5.00;3.47;;;;;;;29.29;33.01;101656.78;3584209;40;20048;-64
2022/08/12 08:29:24;;;;;;;5.60;3.15;;;;;;;29.36;32.37;101663.22;3584826;40;20053;-64
2022/08/12 08:32:00;;;;;;;5.97;3.30;;;;;;;29.31;31.96;101660.22;3585124;40;20060;-64
2022/08/12 08:34:28;;;;;;;4.03;3.45;;;;;;;28.87;32.68;101575.41;3586940;40;20080;-64
2022/08/12 08:36:54;;;;;;;4.88;3.15;;;;;;;29.63;31.49;101652.44;3592351;39;20076;-64
2022/08/12 08:39:20;;;;;;;6.03;3.42;;;;;;;29.93;32.56;101657.78;3584760;40;20318;-64
2022/08/12 08:44:36;;;;;;;4.20;3.30;;;;;;;30.29;31.19;101658.47;3586697;40;20110;-64
2022/08/12 08:47:04;;;;;;;7.70;3.70;;;;;;;30.39;30.75;101658.09;3586155;39;20048;-64
2022/08/12 08:49:30;;;;;;;6.15;3.40;;;;;;;30.51;31.92;101662.00;3584157;40;20722;-64
2022/08/12 08:51:56;;;;;;;7.78;3.28;;;;;;;30.71;31.07;101664.84;3585947;40;20375;-64
2022/08/12 08:54:23;;;;;;;6.10;3.10;;;;;;;30.85;29.18;101659.38;3586242;40;20058;-64
2022/08/12 08:56:51;;;;;;;4.00;3.00;;;;;;;31.09;28.88;101669.06;3585665;40;20368;-64
2022/08/12 08:59:18;;;;;;;6.07;3.03;;;;;;;31.31;28.93;101666.97;3585114;40;20407;-64
2022/08/12 09:01:46;;;;;;;4.47;3.25;;;;;;;31.29;28.56;101664.38;3586690;40;20087;-64
2022/08/12 09:04:12;;;;;;;5.85;2.90;;;;;;;31.12;28.58;101607.53;3585170;40;20056;-64
2022/08/12 09:06:41;;;;;;;4.60;3.22;;;;;;;31.53;27.63;101665.72;3585004;40;20122;-64
2022/08/12 09:09:10;;;;;;;6.30;3.13;;;;;;;31.65;28.44;101664.03;3589531;40;21346;-64
2022/08/12 09:14:20;;;;;;;4.38;3.00;;;;;;;32.21;28.46;101650.69;3585682;40;20059;-64
2022/08/12 09:16:46;;;;;;;5.85;2.90;;;;;;;32.30;25.59;101653.03;3584809;40;20092;-64
2022/08/12 09:19:13;;;;;;;7.32;3.10;;;;;;;32.44;26.43;101651.06;3589569;40;20036;-64
2022/08/12 09:21:40;;;;;;;5.05;3.10;;;;;;;32.44;26.63;101639.09;3584392;40;20067;-64
2022/08/12 09:24:06;;;;;;;8.32;3.00;;;;;;;32.61;26.00;101659.81;3584055;40;20064;-64
2022/08/12 09:26:34;;;;;;;6.55;2.92;;;;;;;32.82;26.35;101651.09;3585832;40;20469;-65
2022/08/12 09:29:00;;;;;;;8.07;2.83;;;;;;;33.01;26.66;101654.88;3584799;40;20497;-64
2022/08/12 09:31:26;;;;;;;4.57;2.78;;;;;;;33.12;25.00;101652.47;3584412;40;20056;-64
2022/08/12 09:33:53;;;;;;;5.20;2.70;;;;;;;33.06;25.13;101637.50;3589759;40;20117;-64
2022/08/12 09:36:21;;;;;;;4.35;3.13;;;;;;;33.36;24.63;101648.00;3584531;40;20097;-64
2022/08/12 09:38:47;;;;;;;8.80;3.05;;;;;;;33.55;23.02;101649.81;3583803;40;20072;-64
2022/08/12 09:41:14;;;;;;;4.15;2.60;;;;;;;33.60;23.42;101650.00;3588800;40;20063;-64
2022/08/12 09:46:30;;;;;;;3.95;2.45;;;;;;;34.04;23.02;101644.47;3585239;40;20121;-64
2022/08/12 09:48:57;;;;;;;4.90;2.70;;;;;;;34.17;24.00;101641.53;3584173;40;20046;-64
2022/08/12 09:51:25;;;;;;;4.22;2.30;;;;;;;34.12;22.59;101614.28;3583943;40;20056;-65
2022/08/12 09:53:51;;;;;;;4.30;2.63;;;;;;;34.26;22.26;101637.34;3584454;40;20052;-65
2022/08/12 09:56:18;;;;;;;4.80;2.40;;;;;;;34.46;22.85;101625.06;3584627;40;20122;-65
2022/08/12 09:58:49;;;;;;;5.07;3.33;;;;;;;34.57;21.75;101621.50;3586041;40;20306;-65
2022/08/12 10:01:16;;;;;;;6.63;3.20;;;;;;;34.70;22.47;101626.06;3584823;40;20064;-65
2022/08/12 10:03:42;;;;;;;7.30;2.88;;;;;;;34.75;23.28;101626.22;3584331;40;20097;-65
2022/08/12 10:06:09;;;;;;;6.40;2.85;;;;;;;35.02;23.43;101623.88;3584829;39;20052;-65
2022/08/12 10:08:37;;;;;;;6.15;2.50;;;;;;;34.83;23.84;101615.56;3583738;40;20050;-65
2022/08/12 10:13:54;;;;;;;5.10;2.78;;;;;;;35.17;22.57;101615.91;3584256;40;20476;-65
2022/08/12 10:16:28;;;;;;;5.05;2.42;;;;;;;35.13;22.97;101625.03;3588934;39;20137;-64
2022/08/12 10:19:01;;;;;;;7.35;2.58;;;;;;;35.15;21.09;101622.88;3585311;40;20616;-65
2022/08/12 10:21:29;;;;;;;5.30;2.70;;;;;;;35.14;21.66;101621.97;3584142;40;20059;-66
2022/08/12 10:23:56;;;;;;;4.68;2.60;;;;;;;35.17;21.67;101618.72;3584375;40;20125;-65
2022/08/12 10:31:56;;;;;;;5.75;2.70;;;;;;;35.29;22.88;101602.81;3583696;40;20322;-65
2022/08/12 10:34:23;;;;;;;6.47;2.50;;;;;;;35.38;22.84;101610.88;3587051;40;20063;-65
2022/08/12 10:36:58;;;;;;;5.53;2.58;;;;;;;35.29;20.89;101594.44;3584665;40;20040;-65
2022/08/12 10:39:38;;;;;;;3.90;2.60;;;;;;;34.86;21.99;101581.56;3584117;40;20050;-65
2022/08/12 10:44:53;;;;;;;4.10;2.67;;;;;;;34.99;21.46;101579.66;3583471;40;20117;-64
2022/08/12 10:47:21;;;;;;;4.22;2.45;;;;;;;35.14;21.80;101582.84;3589055;40;20055;-64
2022/08/12 10:49:47;;;;;;;5.45;2.47;;;;;;;35.29;22.66;101580.44;3590698;40;20046;-64
2022/08/12 10:52:13;;;;;;;3.13;2.67;;;;;;;35.47;21.46;101575.88;3587506;40;20052;-65
2022/08/12 10:54:41;;;;;;;8.20;2.63;;;;;;;35.48;21.04;101556.03;3587339;40;20157;-64
2022/08/12 10:57:08;;;;;;;4.95;2.40;;;;;;;35.71;20.66;101576.72;3583543;39;20091;-64
2022/08/12 10:59:34;;;;;;;3.53;2.38;;;;;;;35.72;21.15;101573.69;3584104;40;20049;-65
2022/08/12 11:02:01;;;;;;;3.40;2.53;;;;;;;35.83;20.56;101577.56;3583709;40;20048;-65
2022/08/12 11:04:29;;;;;;;11.88;2.88;;;;;;;35.88;20.52;101571.25;3583047;40;20051;-65
2022/08/12 11:06:57;;;;;;;5.32;2.85;;;;;;;35.90;19.70;101563.44;3583669;40;20063;-65
2022/08/12 11:09:33;;;;;;;4.22;2.63;;;;;;;35.59;21.10;101523.59;3583943;40;20088;-65
2022/08/12 11:12:05;;;;;;;4.68;2.80;;;;;;;35.80;20.38;101553.72;3583630;40;20052;-65
2022/08/12 11:14:33;;;;;;;3.78;2.80;;;;;;;35.91;19.92;101551.19;3583950;40;20040;-63
2022/08/12 11:17:06;;;;;;;5.38;2.42;;;;;;;36.01;20.52;101557.00;3583418;40;20058;-64
2022/08/12 11:19:35;;;;;;;6.47;3.05;;;;;;;36.09;20.53;101551.00;3586789;39;20386;-64
2022/08/12 11:22:03;;;;;;;4.82;2.67;;;;;;;36.26;20.95;101545.50;3584936;40;20060;-63
2022/08/12 11:24:29;;;;;;;5.40;2.50;;;;;;;36.39;20.03;101547.16;3586896;40;20056;-64
2022/08/12 11:26:57;;;;;;;4.78;2.85;;;;;;;36.51;20.59;101547.13;3586032;40;20064;-64
2022/08/12 11:29:25;;;;;;;4.15;2.55;;;;;;;36.73;20.04;101542.53;3588898;39;20056;-64
2022/08/12 11:31:53;;;;;;;12.32;2.53;;;;;;;36.76;20.78;101539.22;3585563;40;20083;-65
2022/08/12 11:34:20;;;;;;;4.63;2.53;;;;;;;36.92;18.96;101531.94;3589455;40;20404;-65
2022/08/12 11:37:03;;;;;;;4.05;2.55;;;;;;;36.95;19.10;101542.63;3590884;39;20048;-65
2022/08/12 11:39:30;;;;;;;7.18;2.38;;;;;;;36.84;19.46;101532.34;3585566;40;20088;-65
2022/08/12 11:41:56;;;;;;;4.47;2.33;;;;;;;36.77;19.32;101540.06;3585183;40;20448;-66
2022/08/12 11:44:22;;;;;;;5.95;2.67;;;;;;;36.48;18.10;101526.06;3584843;40;20044;-65
2022/08/12 11:46:49;;;;;;;4.68;2.40;;;;;;;36.45;19.58;101532.16;3585515;40;20052;-65
2022/08/12 11:49:15;;;;;;;2.83;2.47;;;;;;;36.39;19.56;101522.81;3585705;40;20096;-66
2022/08/12 11:51:40;;;;;;;6.15;2.40;;;;;;;36.57;18.62;101521.78;3585456;40;20316;-66
2022/08/12 11:54:06;;;;;;;2.65;2.10;;;;;;;36.80;20.13;101520.78;3585701;40;20070;-65
2022/08/12 11:56:33;;;;;;;5.30;2.45;;;;;;;36.88;20.00;101497.09;3585068;40;20047;-65
2022/08/12 11:58:58;;;;;;;3.55;2.60;;;;;;;37.16;18.59;101527.03;3587016;40;21327;-65
2022/08/12 12:01:24;;;;;;;4.40;2.42;;;;;;;37.34;18.45;101511.91;3585380;40;20056;-65
2022/08/12 12:03:51;;;;;;;6.18;2.67;;;;;;;37.44;18.21;101517.66;3584942;40;20049;-67
2022/08/12 12:06:19;;;;;;;3.30;2.20;;;;;;;37.46;18.16;101498.66;3586926;40;20048;-66
2022/08/12 12:08:46;;;;;;;7.63;2.63;;;;;;;37.26;18.66;101481.47;3586763;39;20294;-65
2022/08/12 12:11:12;;;;;;;6.22;2.55;;;;;;;37.13;18.25;101503.16;3584022;40;20054;-65
2022/08/12 12:13:38;;;;;;;2.63;2.10;;;;;;;37.36;18.17;101501.25;3586630;40;20067;-66
2022/08/12 12:16:04;;;;;;;3.92;2.38;;;;;;;37.56;17.95;101490.38;3586664;40;20057;-65
2022/08/12 12:18:33;;;;;;;3.05;2.22;;;;;;;37.37;18.07;101500.16;3586934;40;20364;-66
2022/08/12 12:21:03;;;;;;;2.35;2.15;;;;;;;37.39;18.05;101492.31;3585318;40;20056;-65
2022/08/12 12:23:30;;;;;;;3.80;2.33;;;;;;;37.77;18.80;101504.69;3584808;40;20371;-66
2022/08/12 12:25:56;;;;;;;3.65;2.40;;;;;;;38.06;17.46;101499.75;3584957;40;20052;-65
2022/08/12 12:28:22;;;;;;;5.30;2.50;;;;;;;38.03;17.20;101492.72;3585052;40;20045;-65
2022/08/12 12:30:48;;;;;;;3.60;2.30;;;;;;;38.22;17.35;101495.16;3584194;40;20054;-66
2022/08/12 12:33:14;;;;;;;7.90;2.65;;;;;;;38.04;16.50;101487.94;3587119;40;20068;-65
2022/08/12 12:35:40;;;;;;;5.20;2.30;;;;;;;37.97;17.32;101490.94;3585883;39;20122;-65
2022/08/12 12:38:12;;;;;;;6.10;2.08;;;;;;;38.01;17.47;101496.88;3584736;40;20068;-65
2022/08/12 12:40:43;;;;;;;4.17;2.60;;;;;;;38.02;17.76;101482.56;3584283;40;20052;-66
2022/08/12 12:43:08;;;;;;;5.97;2.83;;;;;;;38.11;18.35;101487.72;3586574;40;20060;-65
2022/08/12 12:45:38;;;;;;;2.50;2.30;;;;;;;38.03;17.76;101484.28;3585142;40;20086;-65
2022/08/12 12:48:14;;;;;;;4.03;2.25;;;;;;;38.09;17.60;101483.25;3591989;39;20056;-66
2022/08/12 12:53:39;;;;;;;3.47;2.50;;;;;;;38.27;17.41;101469.94;3584975;40;20048;-65
2022/08/12 12:56:12;;;;;;;2.67;2.40;;;;;;;38.30;18.37;101467.44;3584160;39;20338;-66
2022/08/12 12:58:38;;;;;;;9.05;2.70;;;;;;;38.24;17.83;101468.50;3584771;40;20366;-66
2022/08/12 13:01:05;;;;;;;6.55;2.65;;;;;;;38.39;19.05;101473.47;3587968;40;20117;-65
2022/08/12 13:03:34;;;;;;;5.93;2.88;;;;;;;38.44;18.23;101473.53;3584667;40;20053;-65
2022/08/12 13:06:03;;;;;;;6.13;2.92;;;;;;;38.37;16.86;101464.41;3586921;40;20125;-65
2022/08/12 13:08:31;;;;;;;3.78;2.60;;;;;;;38.60;17.84;101459.59;3584217;40;20044;-65
2022/08/12 13:11:02;;;;;;;7.22;3.00;;;;;;;38.68;17.71;101464.75;3584466;40;20048;-65
2022/08/12 13:13:31;;;;;;;4.82;3.28;;;;;;;38.83;16.66;101466.84;3584485;40;20044;-65
2022/08/12 13:16:00;;;;;;;7.60;2.97;;;;;;;38.80;17.58;101459.78;3584507;40;20052;-65
2022/08/12 13:18:35;;;;;;;5.82;2.90;;;;;;;38.92;17.68;101457.69;3584998;40;20114;-65
2022/08/12 13:21:07;;;;;;;3.55;2.90;;;;;;;38.96;16.25;101450.41;3583850;40;20076;-65
2022/08/12 13:23:34;;;;;;;;;;;;;;;38.93;16.42;101453.75;3584966;40;20055;-65
2022/08/12 13:26:01;;;;;;;5.15;2.75;;;;;;;38.78;17.19;101417.03;3584157;40;19956;-66
2022/08/12 13:28:29;;;;;;;4.95;2.90;;;;;;;38.87;17.04;101423.91;3585240;40;20040;-65
2022/08/12 13:30:58;;;;;;;6.00;3.17;;;;;;;39.14;16.64;101439.81;3584579;40;20145;-65
2022/08/12 13:33:29;;;;;;;4.40;2.70;;;;;;;38.89;17.40;101443.31;3588462;40;20052;-65